• Join FlightAware (Why Join?)
  • Login
  • US Flag 
01:46AM EDT


 

Airport Tracker/Info


-or-


 

Live Flight TrackerFlight Track Log ✈ AAY853 ✈ 02-May-2014 ✈ KPBG - KPIE

Flight Track Log - Related Links

Times and Time Zones

All times are in EDT time to prevent confusion due to time zone crossing. See the AAY853 flight status page for this flight to view local times or setup timezone preferences in your user account.

Time Position Orientation Groundspeed Altitude Reporting Facility
EDT Latitude Longitude Course Direction KTS MPH feet Rate Location/Type
10:31AM 44.5490 -73.5890 186° South 260 299 6,600  Level FlightAware ADS-B (CYUL)
10:31AM 44.5270 -73.5910 183° South 265 305 7,500 2,880 Climbing FlightAware ADS-B (CYUL)
10:31AM 44.5050 -73.5920 182° South 268 308 8,400 2,820 Climbing FlightAware ADS-B (CYUL)
10:32AM 44.4830 -73.5920 183° South 271 312 9,200 2,700 Climbing FlightAware ADS-B (CYUL)
10:32AM 44.4610 -73.5940 184° South 274 315 10,000 2,100 Climbing FlightAware ADS-B (CYUL)
10:32AM 44.4140 -73.6000 186° South 301 346 11,100 1,620 Climbing FlightAware ADS-B (CYUL)
10:33AM 44.3610 -73.6070 186° South 332 382 12,000 1,800 Climbing FlightAware ADS-B (CYUL)
10:34AM 44.3170 -73.6120 186° South 341 392 13,100 2,460 Climbing FlightAware ADS-B (CYUL)
10:34AM 44.2660 -73.6180 185° South 345 397 14,500 3,060 Climbing FlightAware ADS-B (CYUL)
10:35AM 44.2190 -73.6240 186° South 336 387 16,200 2,760 Climbing FlightAware ADS-B (CYUL)
10:35AM 44.1650 -73.6310 186° South 337 388 17,600 2,220 Climbing FlightAware ADS-B (CYUL)
10:36AM 44.1070 -73.6400 190° South 341 392 18,900 1,740 Climbing FlightAware ADS-B (CYUL)
10:36AM 44.0510 -73.6550 191° South 353 406 19,700 1,500 Climbing FlightAware ADS-B (CYUL)
10:37AM 44.0020 -73.6680 191° South 359 413 20,600 1,980 Climbing FlightAware ADS-B (CYUL)
10:37AM 43.9520 -73.6800 190° South 351 404 21,900 1,500 Climbing FlightAware ADS-B (CYUL)
10:40AM 43.6422 -73.7537 190° South 380 437 26,200 1,260 Climbing FlightAware ADS-B (CYOW)
10:42AM 43.5153 -73.7836 190° South 391 450 27,300 1,020 Climbing FlightAware ADS-B (CYOW)
10:42AM 43.4255 -73.8048 190° South 393 452 28,300 1,080 Climbing FlightAware ADS-B (CYOW)
10:43AM 43.3739 -73.8170 190° South 398 458 28,800 960 Climbing FlightAware ADS-B (CYOW)
10:44AM 43.2969 -73.8349 190° South 401 461 29,500 840 Climbing FlightAware ADS-B (CYOW)
10:44AM 43.2281 -73.8512 190° South 409 471 29,900 960 Climbing FlightAware ADS-B (CYOW)
10:45AM 43.1719 -73.8643 189° South 404 465 30,600 1,260 Climbing FlightAware ADS-B (CYOW)
10:46AM 43.0935 -73.8822 190° South 401 461 31,500 1,140 Climbing FlightAware ADS-B (CYOW)
10:46AM 43.0388 -73.8950 190° South 402 463 32,000 1,080 Climbing FlightAware ADS-B (CYOW)
10:47AM 42.9007 -73.9272 190° South 392 451 33,500 840 Climbing FlightAware ADS-B
10:49AM 42.7563 -73.9606 190° South 402 463 34,200 660 Climbing FlightAware ADS-B (CYOW)
10:50AM 42.6000 -73.9965 190° South 399 459 35,400 240 Climbing FlightAware ADS-B
10:55AM 42.1134 -74.1071 190° South 389 448 36,000 60 Climbing FlightAware ADS-B (KSNC)
10:57AM 41.8882 -74.1577 189° South 394 453 36,000  Level FlightAware ADS-B (KSNC)
10:57AM 41.8185 -74.1734 190° South 394 453 36,000 60 Level FlightAware ADS-B (KSNC)
10:58AM 41.7703 -74.1841 189° South 393 452 36,100 60 Climbing FlightAware ADS-B (KSNC)
10:58AM 41.7076 -74.1980 190° South 390 449 36,100 -120 Level FlightAware ADS-B (KSNC)
10:59AM 41.6405 -74.2131 189° South 387 445 36,000 -120 Descending FlightAware ADS-B (KSNC)
11:00AM 41.5754 -74.2273 190° South 377 434 36,000  Level FlightAware ADS-B (KWWD)
11:00AM 41.5899 -74.2241 189° South 385 443 36,000  Level FlightAware ADS-B (KSNC)
11:00AM 41.4951 -74.2449 190° South 383 441 36,000  Level FlightAware ADS-B (KSNC)
11:01AM 41.4563 -74.2535 190° South 382 440 36,000  Level FlightAware ADS-B (KSNC)
11:01AM 41.4098 -74.2680 202° Southwest 365 420 36,000  Level FlightAware ADS-B (KSNC)
11:02AM 41.3847 -74.2871 215° Southwest 350 403 36,000  Level FlightAware ADS-B (KSNC)
11:02AM 41.3440 -74.3278 216° Southwest 349 402 36,000  Level FlightAware ADS-B (KSNC)
11:03AM 41.2997 -74.3703 217° Southwest 343 395 36,000  Level FlightAware ADS-B (KWWD)
11:03AM 41.2413 -74.4261 217° Southwest 343 395 36,000  Level FlightAware ADS-B (KWWD)
11:04AM 41.1927 -74.4731 217° Southwest 343 395 36,000  Level FlightAware ADS-B (KWWD)
11:05AM 41.1384 -74.5253 217° Southwest 342 394 36,000  Level FlightAware ADS-B (KWWD)
11:05AM 41.0903 -74.5715 216° Southwest 349 402 36,000  Level FlightAware ADS-B (KPHL)
11:05AM 41.0748 -74.5864 216° Southwest 349 402 36,000  Level FlightAware ADS-B (KPHL)
11:06AM 41.0486 -74.6115 217° Southwest 344 396 36,000  Level FlightAware ADS-B (KWWD)
11:06AM 41.0065 -74.6519 217° Southwest 344 396 36,000  Level FlightAware ADS-B (KWWD)
11:07AM 40.9505 -74.7054 216° Southwest 352 405 36,000  Level FlightAware ADS-B (KPHL)
11:07AM 40.9271 -74.7278 217° Southwest 345 397 36,000  Level FlightAware ADS-B (KWWD)
11:08AM 40.8877 -74.7652 217° Southwest 346 398 36,000  Level FlightAware ADS-B (KWWD)
11:08AM 40.8703 -74.7816 216° Southwest 353 406 36,000  Level FlightAware ADS-B (KPHL)
11:09AM 40.8306 -74.8192 217° Southwest 345 397 36,000  Level FlightAware ADS-B (KWWD)
11:09AM 40.8229 -74.8265 217° Southwest 345 397 36,000  Level FlightAware ADS-B (KWWD)
11:09AM 40.7820 -74.8652 217° Southwest 345 397 36,000  Level FlightAware ADS-B (KWWD)
11:10AM 40.7425 -74.9026 217° Southwest 345 397 36,000  Level FlightAware ADS-B (KWWD)
11:10AM 40.6887 -74.9535 216° Southwest 351 404 36,000  Level FlightAware ADS-B (KPHL)
11:11AM 40.6522 -74.9879 217° Southwest 343 395 36,000  Level FlightAware ADS-B (KWWD)
11:11AM 40.6117 -75.0261 216° Southwest 348 400 36,000  Level FlightAware ADS-B (KPHL)
11:12AM 40.5700 -75.0654 216° Southwest 341 392 36,000  Level FlightAware ADS-B (KWWD)
11:12AM 40.5309 -75.1019 216° Southwest 342 394 36,000  Level FlightAware ADS-B (KWWD)
11:13AM 40.4886 -75.1416 216° Southwest 344 396 36,000  Level FlightAware ADS-B (KWWD)
11:13AM 40.4386 -75.1883 216° Southwest 355 409 36,000  Level FlightAware ADS-B (KWWD)
11:14AM 40.3998 -75.2246 216° Southwest 356 410 36,000 60 Level FlightAware ADS-B (KSNC)
11:15AM 40.3468 -75.2740 215° Southwest 357 411 36,100 60 Climbing FlightAware ADS-B (KWWD)
11:15AM 40.2922 -75.3248 216° Southwest 356 410 36,100  Level FlightAware ADS-B (KWWD)
11:16AM 40.2522 -75.3619 216° Southwest 355 409 36,100 -120 Level FlightAware ADS-B (KPHL)
11:16AM 40.2065 -75.4042 215° Southwest 353 406 36,000 -120 Descending FlightAware ADS-B (KWWD)
11:17AM 40.1664 -75.4414 216° Southwest 344 396 36,000  Level FlightAware ADS-B (KWWD)
11:17AM 40.1431 -75.4630 216° Southwest 342 394 36,000  Level FlightAware ADS-B (KWWD)
11:17AM 40.1336 -75.4717 215° Southwest 349 402 36,000  Level FlightAware ADS-B (KPHL)
11:18AM 40.0995 -75.5029 216° Southwest 342 394 36,000  Level FlightAware ADS-B (KWWD)
11:18AM 40.0526 -75.5462 215° Southwest 347 399 36,000  Level FlightAware ADS-B (KPHL)
11:19AM 40.0276 -75.5692 216° Southwest 341 392 36,000  Level FlightAware ADS-B (KWWD)
11:19AM 39.9826 -75.6107 216° Southwest 341 392 36,000  Level FlightAware ADS-B (KWWD)
11:21AM 39.8800 -75.7309 231° Southwest 340 391 36,000  Level FlightAware ADS-B (KOQN)
11:21AM 39.8609 -75.7617 232° Southwest 336 387 36,000  Level FlightAware ADS-B (KWWD)
11:21AM 39.8398 -75.7953 232° Southwest 337 388 36,000  Level FlightAware ADS-B (KWWD)
11:22AM 39.8281 -75.8139 231° Southwest 342 394 36,000  Level FlightAware ADS-B
11:22AM 39.8073 -75.8469 231° Southwest 342 394 36,000  Level FlightAware ADS-B
11:22AM 39.7971 -75.8630 231° Southwest 343 395 36,000  Level FlightAware ADS-B
11:22AM 39.7762 -75.8964 232° Southwest 338 389 36,000  Level FlightAware ADS-B (KWWD)
11:23AM 39.7453 -75.9456 231° Southwest 344 396 36,000  Level FlightAware ADS-B (KAPG)
11:23AM 39.7373 -75.9583 231° Southwest 344 396 36,000  Level FlightAware ADS-B
11:23AM 39.7301 -75.9698 231° Southwest 345 397 36,000  Level FlightAware ADS-B
11:24AM 39.6960 -76.0240 231° Southwest 345 397 36,000  Level FlightAware ADS-B
11:24AM 39.6902 -76.0333 231° Southwest 345 397 36,000  Level FlightAware ADS-B
11:24AM 39.6768 -76.0544 231° Southwest 345 397 36,000  Level FlightAware ADS-B
11:24AM 39.6678 -76.0687 231° Southwest 345 397 36,000  Level FlightAware ADS-B
11:25AM 39.6358 -76.1193 232° Southwest 340 391 36,000  Level FlightAware ADS-B (KWWD)
11:25AM 39.6166 -76.1498 231° Southwest 345 397 36,000  Level FlightAware ADS-B
11:26AM 39.5846 -76.2003 230° Southwest 345 397 36,000  Level FlightAware ADS-B
11:26AM 39.5790 -76.2088 231° Southwest 341 392 36,000  Level FlightAware ADS-B (KWWD)
11:26AM 39.5426 -76.2645 230° Southwest 346 398 36,000  Level FlightAware ADS-B (KWWD)
11:27AM 39.5123 -76.3109 230° Southwest 346 398 36,000  Level FlightAware ADS-B (KDAA)
11:27AM 39.4827 -76.3564 230° Southwest 344 396 36,000  Level FlightAware ADS-B (KDAA)
11:27AM 39.4792 -76.3617 231° Southwest 340 391 36,000  Level FlightAware ADS-B (KWWD)
11:27AM 39.4733 -76.3708 231° Southwest 340 391 36,000  Level FlightAware ADS-B (KWWD)
11:28AM 39.4517 -76.4039 231° Southwest 344 396 36,000  Level FlightAware ADS-B (KDAA)
11:28AM 39.4337 -76.4321 232° Southwest 338 389 36,000  Level FlightAware ADS-B (KWWD)
11:28AM 39.4208 -76.4526 232° Southwest 343 395 36,000  Level FlightAware ADS-B (KDAA)
11:29AM 39.3901 -76.5013 231° Southwest 342 394 36,000  Level FlightAware ADS-B (KDAA)
11:29AM 39.3711 -76.5315 232° Southwest 338 389 36,000  Level FlightAware ADS-B (KWWD)
11:29AM 39.3611 -76.5472 231° Southwest 343 395 36,000  Level FlightAware ADS-B (KDAA)
11:29AM 39.3519 -76.5617 232° Southwest 339 390 36,000  Level FlightAware ADS-B (KWWD)
11:30AM 39.3306 -76.5953 231° Southwest 343 395 36,000  Level FlightAware ADS-B (KDAA)
11:30AM 39.3149 -76.6199 232° Southwest 339 390 36,000  Level FlightAware ADS-B (KWWD)
11:30AM 39.2997 -76.6437 231° Southwest 343 395 36,000  Level FlightAware ADS-B (KDAA)
11:31AM 39.2808 -76.6732 231° Southwest 343 395 36,000  Level FlightAware ADS-B
11:31AM 39.2690 -76.6917 231° Southwest 343 395 36,000  Level FlightAware ADS-B (KDAA)
11:31AM 39.2491 -76.7227 232° Southwest 338 389 36,000  Level FlightAware ADS-B (KWWD)
11:31AM 39.2393 -76.7380 231° Southwest 342 394 36,000  Level FlightAware ADS-B (KDAA)
11:32AM 39.2178 -76.7714 231° Southwest 337 388 36,000  Level FlightAware ADS-B (KWWD)
11:32AM 39.2090 -76.7850 231° Southwest 340 391 36,000  Level FlightAware ADS-B (KDAA)
11:32AM 39.2000 -76.7990 232° Southwest 336 387 36,000  Level FlightAware ADS-B (KWWD)
11:32AM 39.1883 -76.8171 232° Southwest 336 387 36,000  Level FlightAware ADS-B (KWWD)
11:32AM 39.1791 -76.8316 231° Southwest 340 391 36,000  Level FlightAware ADS-B (KDAA)
11:33AM 39.1490 -76.8784 231° Southwest 342 394 36,000  Level FlightAware ADS-B (KDAA)
11:33AM 39.1371 -76.8970 232° Southwest 336 387 36,000  Level FlightAware ADS-B (KWWD)
11:33AM 39.1179 -76.9270 231° Southwest 343 395 36,000  Level FlightAware ADS-B (KDAA)
11:33AM 39.1010 -76.9532 232° Southwest 336 387 36,000  Level FlightAware ADS-B (KWWD)
11:34AM 39.0877 -76.9738 231° Southwest 343 395 36,000  Level FlightAware ADS-B (KDAA)
11:34AM 39.0703 -77.0008 230° Southwest 343 395 36,000  Level FlightAware ADS-B (KDCA)
11:34AM 39.0510 -77.0285 226° Southwest 345 397 36,000  Level FlightAware ADS-B (KDAA)
11:35AM 39.0324 -77.0512 221° Southwest 348 400 36,000 120 Level FlightAware ADS-B (KWWD)
11:35AM 38.9981 -77.0885 221° Southwest 348 400 36,100 420 Climbing FlightAware ADS-B (KDAA)
11:35AM 38.9859 -77.1019 222° Southwest 342 394 36,300 780 Climbing FlightAware ADS-B (KWWD)
11:36AM 38.9609 -77.1295 221° Southwest 346 398 36,500 540 Climbing FlightAware ADS-B (KDAA)
11:36AM 38.9469 -77.1449 221° Southwest 346 398 36,600 360 Climbing FlightAware ADS-B (KWWD)
11:36AM 38.9244 -77.1697 221° Southwest 346 398 36,700 360 Climbing FlightAware ADS-B (KDAA)
11:36AM 38.9080 -77.1879 222° Southwest 341 392 36,800 540 Climbing FlightAware ADS-B (KWWD)
11:37AM 38.8870 -77.2109 221° Southwest 346 398 37,000 480 Climbing FlightAware ADS-B (KDAA)
11:37AM 38.8646 -77.2355 221° Southwest 342 394 37,100 300 Climbing FlightAware ADS-B (KWWD)
11:37AM 38.8439 -77.2581 221° Southwest 348 400 37,200 240 Climbing FlightAware ADS-B (KDAA)
11:38AM 38.8076 -77.2977 221° Southwest 350 403 37,300 300 Climbing FlightAware ADS-B (KDAA)
11:38AM 38.7741 -77.3342 221° Southwest 352 405 37,500 360 Climbing FlightAware ADS-B (KDCA)
11:38AM 38.7714 -77.3371 221° Southwest 350 403 37,500 300 Level FlightAware ADS-B (KDAA)
11:39AM 38.7263 -77.3863 221° Southwest 350 403 37,700 240 Climbing FlightAware ADS-B (KDAA)
11:39AM 38.6874 -77.4285 220° Southwest 355 409 37,800 120 Climbing FlightAware ADS-B (KWWD)
11:39AM 38.6762 -77.4407 221° Southwest 356 410 37,800 300 Level FlightAware ADS-B (KDAA)
11:40AM 38.6625 -77.4555 220° Southwest 356 410 37,900 300 Climbing FlightAware ADS-B (KWWD)
11:40AM 38.6319 -77.4886 221° Southwest 356 410 38,000 60 Climbing FlightAware ADS-B (KDAA)
11:40AM 38.5940 -77.5296 221° Southwest 358 412 38,000  Level FlightAware ADS-B (KDAA)
11:41AM 38.5864 -77.5378 220° Southwest 356 410 38,000  Level FlightAware ADS-B (KWWD)
11:41AM 38.5578 -77.5690 221° Southwest 357 411 38,000  Level FlightAware ADS-B (KDAA)
11:41AM 38.5490 -77.5786 221° Southwest 356 410 38,000  Level FlightAware ADS-B (KDCA)
11:41AM 38.5250 -77.6046 220° Southwest 356 410 38,000  Level FlightAware ADS-B (KWWD)
11:41AM 38.5184 -77.6117 221° Southwest 355 409 38,000  Level FlightAware ADS-B (KDAA)
11:42AM 38.4846 -77.6483 220° Southwest 357 411 38,000  Level FlightAware ADS-B (KWWD)
11:42AM 38.4814 -77.6518 221° Southwest 357 411 38,000  Level FlightAware ADS-B (KDAA)
11:42AM 38.4473 -77.6887 221° Southwest 358 412 38,000  Level FlightAware ADS-B (KDCA)
11:43AM 38.4109 -77.7279 221° Southwest 359 413 38,000  Level FlightAware ADS-B (KDAA)
11:43AM 38.3983 -77.7414 221° Southwest 359 413 38,000  Level FlightAware ADS-B (KDCA)
11:43AM 38.3766 -77.7647 220° Southwest 360 414 38,000  Level FlightAware ADS-B (KWWD)
11:43AM 38.3664 -77.7757 221° Southwest 359 413 38,000  Level FlightAware ADS-B (KDAA)
11:43AM 38.3678 -77.7741 220° Southwest 360 414 38,000  Level FlightAware ADS-B (KWWD)
11:44AM 38.3360 -77.8083 221° Southwest 359 413 38,000  Level FlightAware ADS-B (KDAA)
11:44AM 38.3209 -77.8245 221° Southwest 359 413 38,000  Level FlightAware ADS-B (KDCA)
11:44AM 38.3032 -77.8434 220° Southwest 359 413 38,000  Level FlightAware ADS-B (KWWD)
11:44AM 38.2905 -77.8572 221° Southwest 359 413 38,000  Level FlightAware ADS-B (KDAA)
11:44AM 38.2893 -77.8584 220° Southwest 359 413 38,000  Level FlightAware ADS-B (KWWD)
11:45AM 38.2586 -77.8913 221° Southwest 358 412 38,000  Level FlightAware ADS-B (KDAA)
11:45AM 38.2237 -77.9288 221° Southwest 358 412 38,000  Level FlightAware ADS-B (KDCA)
11:45AM 38.2276 -77.9246 221° Southwest 357 411 38,000  Level FlightAware ADS-B (KDAA)
11:46AM 38.2009 -77.9531 220° Southwest 357 411 38,000  Level FlightAware ADS-B (KWWD)
11:46AM 38.1622 -77.9944 220° Southwest 356 410 38,000  Level FlightAware ADS-B (KCHO)
11:46AM 38.1521 -78.0053 221° Southwest 356 410 38,000  Level FlightAware ADS-B (KDCA)
11:47AM 38.0988 -78.0619 220° Southwest 357 411 38,000  Level FlightAware ADS-B (KCHO)
11:48AM 38.0561 -78.1070 220° Southwest 358 412 38,000  Level FlightAware ADS-B (KWWD)
11:48AM 38.0195 -78.1458 220° Southwest 358 412 38,000  Level FlightAware ADS-B (KWWD)
11:48AM 38.0054 -78.1607 219° Southwest 353 406 38,000  Level FlightAware ADS-B (KWWD)
11:49AM 37.9649 -78.2004 217° Southwest 360 414 38,000  Level FlightAware ADS-B (KDCA)
11:49AM 37.9166 -78.2453 217° Southwest 361 415 38,000  Level FlightAware ADS-B (KCHO)
11:50AM 37.8753 -78.2842 217° Southwest 360 414 38,000  Level FlightAware ADS-B (KCHO)
11:50AM 37.8250 -78.3321 217° Southwest 360 414 38,000  Level FlightAware ADS-B (KCHO)
11:51AM 37.7768 -78.3777 217° Southwest 360 414 38,000  Level FlightAware ADS-B (KWWD)
11:52AM 37.7400 -78.4128 217° Southwest 360 414 38,000  Level FlightAware ADS-B (KCHO)
11:52AM 37.6892 -78.4611 217° Southwest 361 415 38,000  Level FlightAware ADS-B (KCHO)
11:53AM 37.6408 -78.5069 217° Southwest 361 415 38,000  Level FlightAware ADS-B (KWWD)
11:53AM 37.5895 -78.5555 217° Southwest 363 418 38,000  Level FlightAware ADS-B (KWWD)
11:54AM 37.5403 -78.6019 217° Southwest 363 418 38,000  Level FlightAware ADS-B (KWWD)
11:55AM 37.4683 -78.6697 217° Southwest 363 418 38,000  Level FlightAware ADS-B (KCHO)
11:55AM 37.4317 -78.7041 217° Southwest 364 419 38,000  Level FlightAware ADS-B (KCHO)
11:57AM 37.3199 -78.8091 217° Southwest 366 421 38,000  Level FlightAware ADS-B (KWWD)
11:57AM 37.2725 -78.8531 217° Southwest 361 415 38,000  Level FlightAware ADS-B (KWWD)
11:58AM 37.2322 -78.8909 217° Southwest 367 422 38,000  Level FlightAware ADS-B (KWWD)
11:58AM 37.1859 -78.9341 217° Southwest 366 421 38,000  Level FlightAware ADS-B (KWWD)
11:59AM 37.1438 -78.9731 217° Southwest 366 421 38,000  Level FlightAware ADS-B (KWWD)
12:00PM 37.0798 -79.0325 217° Southwest 361 415 38,000  Level FlightAware ADS-B (KWWD)
12:04PM 37.2916 -78.8353 217° Southwest 367 422 38,000  Level FlightAware ADS-B (KINT)
12:09PM 36.3542 -79.6975 216° Southwest 366 421 38,000  Level FlightAware ADS-B (KINT)
12:09PM 36.2909 -79.7549 216° Southwest 364 419 38,000  Level FlightAware ADS-B (KINT)
12:10PM 36.2470 -79.7946 216° Southwest 364 419 38,000  Level FlightAware ADS-B (KINT)
12:11PM 36.1821 -79.8531 216° Southwest 364 419 38,000  Level FlightAware ADS-B (KINT)
12:11PM 36.1317 -79.8984 216° Southwest 364 419 38,000  Level FlightAware ADS-B (KINT)
12:12PM 36.0768 -79.9476 215° Southwest 365 420 38,000  Level FlightAware ADS-B (KINT)
12:13PM 36.0146 -79.9913 205° Southwest 373 429 38,000  Level FlightAware ADS-B (KINT)
12:13PM 35.9628 -80.0175 202° Southwest 377 434 38,000  Level FlightAware ADS-B (KINT)
12:14PM 35.8842 -80.0573 203° Southwest 377 434 38,000  Level FlightAware ADS-B (KINT)
12:15PM 35.7888 -80.1055 202° Southwest 375 432 38,000  Level FlightAware ADS-B (KINT)
12:16PM 35.7251 -80.1375 202° Southwest 375 432 38,000  Level FlightAware ADS-B (KINT)
12:16PM 35.6617 -80.1693 202° Southwest 375 432 38,000  Level FlightAware ADS-B (KINT)
12:17PM 35.5945 -80.2031 202° Southwest 375 432 38,000  Level FlightAware ADS-B (KINT)
12:18PM 35.5323 -80.2342 202° Southwest 374 430 38,000  Level FlightAware ADS-B (KINT)
12:18PM 35.4664 -80.2672 202° Southwest 374 430 38,000  Level FlightAware ADS-B (KINT)
12:19PM 35.4031 -80.2988 202° Southwest 374 430 38,000  Level FlightAware ADS-B (KINT)
12:20PM 35.3383 -80.3310 202° Southwest 374 430 38,000  Level FlightAware ADS-B (KINT)
12:20PM 35.2818 -80.3591 202° Southwest 374 430 38,000  Level FlightAware ADS-B (KINT)
12:21PM 35.2147 -80.3923 202° Southwest 373 429 38,000  Level FlightAware ADS-B (KINT)
12:22PM 35.1457 -80.4264 202° Southwest 372 428 38,000  Level FlightAware ADS-B (KINT)
12:22PM 35.0829 -80.4576 202° Southwest 373 429 38,000  Level FlightAware ADS-B (KINT)
12:23PM 35.0267 -80.4853 202° Southwest 374 430 38,000  Level FlightAware ADS-B (KINT)
12:24PM 34.9604 -80.5181 202° Southwest 376 433 38,000  Level FlightAware ADS-B (KINT)
12:25PM 34.8556 -80.5696 202° Southwest 378 435 38,000  Level FlightAware ADS-B (KINT)
12:26PM 34.7695 -80.6118 202° Southwest 378 435 38,000  Level FlightAware ADS-B (KCDN)
12:27PM 34.6627 -80.6636 202° Southwest 378 435 38,000  Level FlightAware ADS-B (KCDN)
12:27PM 34.6176 -80.6857 202° Southwest 378 435 38,000  Level FlightAware ADS-B (KINT)
12:28PM 34.5384 -80.7246 202° Southwest 377 434 38,000  Level FlightAware ADS-B (KCDN)
12:28PM 34.4784 -80.7540 202° Southwest 376 433 38,000  Level FlightAware ADS-B (KCDN)
12:29PM 34.3989 -80.7925 202° Southwest 376 433 38,000  Level FlightAware ADS-B (KCDN)
12:30PM 34.3233 -80.8293 202° Southwest 374 430 38,000  Level FlightAware ADS-B (KCDN)
12:31PM 34.2562 -80.8616 202° Southwest 373 429 38,000  Level FlightAware ADS-B (KCDN)
12:32PM 34.1711 -80.9025 202° Southwest 373 429 38,000  Level FlightAware ADS-B (KCDN)
12:32PM 34.1222 -80.9260 202° Southwest 368 423 38,000  Level FlightAware ADS-B (KCDN)
12:33PM 34.0617 -80.9552 202° Southwest 366 421 38,000  Level FlightAware ADS-B (KCDN)
12:34PM 33.9430 -81.0122 202° Southwest 364 419 38,000  Level FlightAware ADS-B (KCDN)
12:35PM 33.8950 -81.0352 202° Southwest 364 419 38,000  Level FlightAware ADS-B (KCDN)
12:36PM 33.8005 -81.0812 203° Southwest 363 418 38,000  Level FlightAware ADS-B (KCDN)
12:36PM 33.7538 -81.1044 203° Southwest 363 418 38,000  Level FlightAware ADS-B (KCDN)
12:37PM 33.7061 -81.1281 203° Southwest 364 419 38,000  Level FlightAware ADS-B (KCDN)
12:37PM 33.6537 -81.1541 202° Southwest 365 420 38,000  Level FlightAware ADS-B (KCDN)
12:38PM 33.5850 -81.1880 202° Southwest 366 421 38,000  Level FlightAware ADS-B (KCDN)
12:38PM 33.5420 -81.2091 202° Southwest 366 421 38,000  Level FlightAware ADS-B (KCDN)
12:41PM 33.3247 -81.3159 202° Southwest 370 426 38,000  Level FlightAware ADS-B (KCDN)
12:42PM 33.2367 -81.3628 202° Southwest 373 429 38,000  Level Jacksonville Center
12:43PM 33.1431 -81.4089 202° Southwest 373 429 38,000  Level Jacksonville Center
12:44PM 33.0497 -81.4528 202° Southwest 373 429 38,000 -60 Level Jacksonville Center
12:45PM 32.9564 -81.4986 202° Southwest 373 429 37,900  Descending Jacksonville Center
12:46PM 32.8628 -81.5422 201° Southwest 373 429 38,000  Climbing Jacksonville Center
12:47PM 32.7694 -81.5881 202° Southwest 373 429 38,000  Level Jacksonville Center
12:48PM 32.6842 -81.6314 203° Southwest 373 429 38,000  Level Jacksonville Center
12:49PM 32.5803 -81.6797 201° Southwest 367 422 38,000  Level Jacksonville Center
12:50PM 32.4950 -81.7128 198° South 372 428 38,000  Level Jacksonville Center
12:51PM 32.3806 -81.7414 192° South 378 435 38,000  Level Jacksonville Center
12:52PM 32.2783 -81.7647 191° South 373 429 38,000  Level Jacksonville Center
12:53PM 32.1889 -81.7831 190° South 368 423 38,000  Level Jacksonville Center
12:54PM 32.0783 -81.8089 191° South 374 430 38,000  Level Jacksonville Center
12:55PM 31.9847 -81.8294 191° South 374 430 38,100  Climbing Jacksonville Center
12:56PM 31.8742 -81.8578 192° South 374 430 38,000 -60 Descending Jacksonville Center
12:57PM 31.7761 -81.8783 190° South 374 430 38,000  Level Jacksonville Center
12:58PM 31.6867 -81.8964 190° South 369 425 38,000  Level Jacksonville Center
12:59PM 31.5761 -81.9219 191° South 369 425 38,000  Level Jacksonville Center
01:00PM 31.4822 -81.9425 191° South 374 430 38,000  Level Jacksonville Center
01:01PM 31.3803 -81.9656 191° South 374 430 38,000  Level Jacksonville Center
01:02PM 31.2761 -81.9908 192° South 374 430 38,000  Level Jacksonville Center
01:03PM 31.1739 -82.0136 191° South 374 430 38,000  Level Jacksonville Center
01:04PM 31.0717 -82.0339 190° South 374 430 38,000  Level Jacksonville Center
01:05PM 30.9694 -82.0592 192° South 374 430 38,000  Level Jacksonville Center
01:06PM 30.8672 -82.0794 190° South 374 430 38,000 -60 Level Jacksonville Center
01:07PM 30.7631 -82.1044 192° South 374 430 37,900  Descending Jacksonville Center
01:08PM 30.6608 -82.1269 191° South 374 430 38,000  Climbing Jacksonville Center
01:09PM 30.5608 -82.1494 191° South 374 430 38,000  Level Jacksonville Center
01:10PM 30.4544 -82.1647 187° South 374 430 38,000 -720 Level Jacksonville Center
01:15PM 29.8762 -82.2955 191° South 400 460 33,400 -1,320 Descending FlightAware ADS-B (KMCO)
01:16PM 29.7858 -82.3148 191° South 399 459 30,200 -2,100 Descending FlightAware ADS-B (KMCO)
01:21PM 29.2253 -82.3147 174° South 410 472 21,700 -1,980 Descending FlightAware ADS-B (KMCO)
01:23PM 29.0021 -82.2882 174° South 383 441 16,800 -1,980 Descending FlightAware ADS-B (KMCO)
01:24PM 28.9250 -82.2925 174° South 397 457 16,000 -1,560 Descending Jacksonville Center
01:25PM 28.8269 -82.3072 187° South 376 433 13,900 -1,140 Descending Jacksonville Center
01:26PM 28.6500 -82.2833 173° South 333 383 13,000 -1,140 Descending Tampa TRACON
01:27PM 28.5500 -82.2833 180° South 330 380 10,900 -1,500 Descending Tampa TRACON
01:28PM 28.5000 -82.3500 230° Southwest 309 356 10,000 -540 Descending Tampa TRACON
01:29PM 28.5000 -82.4333 270° West 296 341 9,900 -840 Descending Tampa TRACON
01:30PM 28.4667 -82.5000 240° Southwest 253 291 8,400 -1,500 Descending Tampa TRACON
01:31PM 28.4167 -82.5667 230° Southwest 256 295 7,000 -1,260 Descending Tampa TRACON
01:32PM 28.3833 -82.6333 240° Southwest 258 297 6,200 -1,020 Descending Tampa TRACON
01:33PM 28.3333 -82.6833 221° Southwest 257 296 5,200 -960 Descending Tampa TRACON
01:34PM 28.2667 -82.7167 204° Southwest 257 296 4,100 -600 Descending Tampa TRACON
01:35PM 28.2000 -82.7500 204° Southwest 259 298 4,000 -60 Descending Tampa TRACON
01:36PM 28.1333 -82.7833 204° Southwest 256 295 4,000 -60 Level Tampa TRACON
01:37PM 28.0667 -82.8000 192° South 262 302 3,900 -480 Descending Tampa TRACON
01:38PM 27.9833 -82.8000 180° South 266 306 3,000 -480 Descending Tampa TRACON
01:39PM 27.9167 -82.7833 168° South 240 276 3,000  Level Tampa TRACON
01:40PM 27.8500 -82.7667 168° South 221 254 3,000 -120 Level Tampa TRACON
01:41PM 27.7833 -82.7667 180° South 225 259 2,800 -540 Descending Tampa TRACON
01:42PM 27.7333 -82.7500 164° South 207 238 2,000 -420 Descending Tampa TRACON
01:43PM 27.6833 -82.7333 310° West 199 229 2,000  Level Tampa TRACON
01:44PM 27.8366 -82.7135 17° North  Level Estimated
01:44PM 27.7000 -82.6833 69° East 190 219 2,000  Level Tampa TRACON
01:45PM 27.7500 -82.6667 16° North 158 182 2,000  Level Tampa TRACON
01:46PM 27.7833 -82.6667 360° North 134 154 2,000 -240 Level Tampa TRACON
01:47PM 27.8167 -82.6667 360° North 133 153 1,600 -540 Descending Tampa TRACON
01:48PM 27.8500 -82.6833 336° Northwest 131 151 1,000 -660 Descending Tampa TRACON
01:49PM 27.8833 -82.6833 360° North 132 152 300 -660 Descending Tampa TRACON
01:51PM 27.9000 -82.6833 310° West  Level FlightAware Approximate